sensor_id;sensor_type;location;lat;lon;timestamp;P1;durP1;ratioP1;P2;durP2;ratioP2
22939;SDS011;11636;52.086;5.090;2024-01-15T00:00:17;4.10;;;1.00;;
22939;SDS011;11636;52.086;5.090;2024-01-15T00:02:51;4.85;;;1.25;;
22939;SDS011;11636;52.086;5.090;2024-01-15T00:05:17;6.85;;;1.00;;
22939;SDS011;11636;52.086;5.090;2024-01-15T00:07:51;9.27;;;1.35;;
22939;SDS011;11636;52.086;5.090;2024-01-15T00:10:17;8.05;;;1.13;;
22939;SDS011;11636;52.086;5.090;2024-01-15T00:12:50;8.68;;;1.65;;
22939;SDS011;11636;52.086;5.090;2024-01-15T00:15:17;7.80;;;1.40;;
22939;SDS011;11636;52.086;5.090;2024-01-15T00:17:51;6.30;;;1.40;;
22939;SDS011;11636;52.086;5.090;2024-01-15T00:20:17;7.80;;;1.85;;
22939;SDS011;11636;52.086;5.090;2024-01-15T00:22:44;11.45;;;1.50;;
22939;SDS011;11636;52.086;5.090;2024-01-15T00:25:18;6.65;;;1.23;;
22939;SDS011;11636;52.086;5.090;2024-01-15T00:27:44;8.20;;;1.38;;
22939;SDS011;11636;52.086;5.090;2024-01-15T00:30:18;7.78;;;1.35;;
22939;SDS011;11636;52.086;5.090;2024-01-15T00:32:45;10.88;;;1.50;;
22939;SDS011;11636;52.086;5.090;2024-01-15T00:35:19;9.27;;;1.15;;
22939;SDS011;11636;52.086;5.090;2024-01-15T00:37:45;11.32;;;1.88;;
22939;SDS011;11636;52.086;5.090;2024-01-15T00:40:18;9.77;;;1.60;;
22939;SDS011;11636;52.086;5.090;2024-01-15T00:42:45;14.73;;;1.85;;
22939;SDS011;11636;52.086;5.090;2024-01-15T00:45:19;17.52;;;2.20;;
22939;SDS011;11636;52.086;5.090;2024-01-15T00:47:46;8.38;;;1.27;;
22939;SDS011;11636;52.086;5.090;2024-01-15T00:50:19;10.88;;;1.60;;
22939;SDS011;11636;52.086;5.090;2024-01-15T00:52:45;9.15;;;1.23;;
22939;SDS011;11636;52.086;5.090;2024-01-15T00:55:12;13.38;;;1.67;;
22939;SDS011;11636;52.086;5.090;2024-01-15T00:57:46;10.40;;;1.25;;
22939;SDS011;11636;52.086;5.090;2024-01-15T01:00:13;9.43;;;1.40;;
22939;SDS011;11636;52.086;5.090;2024-01-15T01:02:47;8.98;;;1.35;;
22939;SDS011;11636;52.086;5.090;2024-01-15T01:05:13;11.07;;;1.48;;
22939;SDS011;11636;52.086;5.090;2024-01-15T01:07:47;9.70;;;1.65;;
22939;SDS011;11636;52.086;5.090;2024-01-15T01:10:20;8.38;;;0.93;;
22939;SDS011;11636;52.086;5.090;2024-01-15T01:12:46;10.38;;;1.20;;
22939;SDS011;11636;52.086;5.090;2024-01-15T01:15:20;10.50;;;1.30;;
22939;SDS011;11636;52.086;5.090;2024-01-15T01:17:53;10.30;;;1.30;;
22939;SDS011;11636;52.086;5.090;2024-01-15T01:20:27;6.95;;;1.10;;
22939;SDS011;11636;52.086;5.090;2024-01-15T01:22:54;11.65;;;1.60;;
22939;SDS011;11636;52.086;5.090;2024-01-15T01:25:27;9.13;;;1.40;;
22939;SDS011;11636;52.086;5.090;2024-01-15T01:28:00;8.75;;;1.10;;
22939;SDS011;11636;52.086;5.090;2024-01-15T01:30:27;5.90;;;1.17;;
22939;SDS011;11636;52.086;5.090;2024-01-15T01:33:00;11.90;;;1.65;;
22939;SDS011;11636;52.086;5.090;2024-01-15T01:35:27;6.22;;;0.88;;
22939;SDS011;11636;52.086;5.090;2024-01-15T01:37:53;11.45;;;1.75;;
22939;SDS011;11636;52.086;5.090;2024-01-15T01:40:27;11.57;;;1.70;;
22939;SDS011;11636;52.086;5.090;2024-01-15T01:43:00;10.40;;;1.27;;
22939;SDS011;11636;52.086;5.090;2024-01-15T01:45:35;13.35;;;1.40;;
22939;SDS011;11636;52.086;5.090;2024-01-15T01:48:08;16.00;;;2.03;;
22939;SDS011;11636;52.086;5.090;2024-01-15T01:50:35;10.23;;;1.92;;
22939;SDS011;11636;52.086;5.090;2024-01-15T01:53:09;18.42;;;1.52;;
22939;SDS011;11636;52.086;5.090;2024-01-15T01:55:36;9.43;;;1.20;;
22939;SDS011;11636;52.086;5.090;2024-01-15T01:58:05;9.32;;;1.33;;
22939;SDS011;11636;52.086;5.090;2024-01-15T02:00:39;6.47;;;1.13;;
22939;SDS011;11636;52.086;5.090;2024-01-15T02:03:06;10.75;;;1.40;;
22939;SDS011;11636;52.086;5.090;2024-01-15T02:05:33;9.68;;;1.10;;
22939;SDS011;11636;52.086;5.090;2024-01-15T02:08:09;11.00;;;1.33;;
22939;SDS011;11636;52.086;5.090;2024-01-15T02:10:36;11.30;;;1.20;;
22939;SDS011;11636;52.086;5.090;2024-01-15T02:13:09;6.55;;;0.60;;
22939;SDS011;11636;52.086;5.090;2024-01-15T02:15:36;5.55;;;0.75;;
22939;SDS011;11636;52.086;5.090;2024-01-15T02:18:09;9.98;;;1.23;;
22939;SDS011;11636;52.086;5.090;2024-01-15T02:20:36;6.88;;;1.10;;
22939;SDS011;11636;52.086;5.090;2024-01-15T02:23:09;5.82;;;0.88;;
22939;SDS011;11636;52.086;5.090;2024-01-15T02:25:45;7.07;;;0.80;;
22939;SDS011;11636;52.086;5.090;2024-01-15T02:28:13;4.70;;;1.10;;
22939;SDS011;11636;52.086;5.090;2024-01-15T02:30:44;4.18;;;0.82;;
22939;SDS011;11636;52.086;5.090;2024-01-15T02:33:17;8.48;;;0.70;;
22939;SDS011;11636;52.086;5.090;2024-01-15T02:35:50;3.85;;;0.50;;
22939;SDS011;11636;52.086;5.090;2024-01-15T02:38:17;5.55;;;0.60;;
22939;SDS011;11636;52.086;5.090;2024-01-15T02:40:44;6.28;;;0.85;;
22939;SDS011;11636;52.086;5.090;2024-01-15T02:43:18;6.32;;;0.80;;
22939;SDS011;11636;52.086;5.090;2024-01-15T02:45:45;8.25;;;1.17;;
22939;SDS011;11636;52.086;5.090;2024-01-15T02:48:22;5.97;;;1.10;;
22939;SDS011;11636;52.086;5.090;2024-01-15T02:50:49;6.35;;;0.65;;
22939;SDS011;11636;52.086;5.090;2024-01-15T02:53:16;6.10;;;0.60;;
22939;SDS011;11636;52.086;5.090;2024-01-15T02:55:49;6.00;;;0.60;;
22939;SDS011;11636;52.086;5.090;2024-01-15T02:58:16;3.60;;;0.52;;
22939;SDS011;11636;52.086;5.090;2024-01-15T03:00:49;5.05;;;0.30;;
22939;SDS011;11636;52.086;5.090;2024-01-15T03:03:16;5.55;;;0.60;;
22939;SDS011;11636;52.086;5.090;2024-01-15T03:05:49;7.40;;;1.20;;
22939;SDS011;11636;52.086;5.090;2024-01-15T03:08:16;2.72;;;0.32;;
22939;SDS011;11636;52.086;5.090;2024-01-15T03:10:50;7.20;;;0.80;;
22939;SDS011;11636;52.086;5.090;2024-01-15T03:13:16;2.50;;;0.38;;
22939;SDS011;11636;52.086;5.090;2024-01-15T03:15:45;1.80;;;0.60;;
22939;SDS011;11636;52.086;5.090;2024-01-15T03:18:19;2.20;;;0.38;;
22939;SDS011;11636;52.086;5.090;2024-01-15T03:20:46;5.25;;;0.65;;
22939;SDS011;11636;52.086;5.090;2024-01-15T03:23:19;3.30;;;0.57;;
22939;SDS011;11636;52.086;5.090;2024-01-15T03:25:46;4.10;;;0.60;;
22939;SDS011;11636;52.086;5.090;2024-01-15T03:28:19;3.58;;;0.40;;
22939;SDS011;11636;52.086;5.090;2024-01-15T03:30:46;5.57;;;0.63;;
22939;SDS011;11636;52.086;5.090;2024-01-15T03:33:19;7.93;;;0.88;;
22939;SDS011;11636;52.086;5.090;2024-01-15T03:35:46;6.38;;;0.95;;
22939;SDS011;11636;52.086;5.090;2024-01-15T03:38:13;3.10;;;0.43;;
22939;SDS011;11636;52.086;5.090;2024-01-15T03:40:46;4.20;;;0.52;;
22939;SDS011;11636;52.086;5.090;2024-01-15T03:43:19;1.48;;;0.30;;
22939;SDS011;11636;52.086;5.090;2024-01-15T03:45:46;1.70;;;0.40;;
22939;SDS011;11636;52.086;5.090;2024-01-15T03:48:13;3.40;;;0.47;;
22939;SDS011;11636;52.086;5.090;2024-01-15T03:50:46;2.75;;;0.50;;
22939;SDS011;11636;52.086;5.090;2024-01-15T03:53:13;4.30;;;0.80;;
22939;SDS011;11636;52.086;5.090;2024-01-15T03:55:47;8.07;;;0.80;;
22939;SDS011;11636;52.086;5.090;2024-01-15T03:58:14;3.85;;;0.95;;
22939;SDS011;11636;52.086;5.090;2024-01-15T04:00:48;3.97;;;0.57;;
22939;SDS011;11636;52.086;5.090;2024-01-15T04:03:15;6.35;;;0.73;;
22939;SDS011;11636;52.086;5.090;2024-01-15T04:05:49;6.70;;;1.10;;
22939;SDS011;11636;52.086;5.090;2024-01-15T04:08:16;4.35;;;0.57;;
22939;SDS011;11636;52.086;5.090;2024-01-15T04:10:49;5.97;;;1.10;;
22939;SDS011;11636;52.086;5.090;2024-01-15T04:13:16;5.85;;;0.80;;
22939;SDS011;11636;52.086;5.090;2024-01-15T04:15:42;4.93;;;0.75;;
22939;SDS011;11636;52.086;5.090;2024-01-15T04:18:16;5.75;;;1.25;;
22939;SDS011;11636;52.086;5.090;2024-01-15T04:20:44;8.05;;;0.60;;
22939;SDS011;11636;52.086;5.090;2024-01-15T04:23:11;5.05;;;0.80;;
22939;SDS011;11636;52.086;5.090;2024-01-15T04:25:44;3.78;;;0.68;;
22939;SDS011;11636;52.086;5.090;2024-01-15T04:28:18;4.25;;;0.95;;
22939;SDS011;11636;52.086;5.090;2024-01-15T04:30:45;5.65;;;0.95;;
22939;SDS011;11636;52.086;5.090;2024-01-15T04:33:18;5.28;;;0.93;;
22939;SDS011;11636;52.086;5.090;2024-01-15T04:35:46;7.25;;;0.80;;
22939;SDS011;11636;52.086;5.090;2024-01-15T04:38:26;5.25;;;0.93;;
22939;SDS011;11636;52.086;5.090;2024-01-15T04:40:52;5.82;;;0.82;;
22939;SDS011;11636;52.086;5.090;2024-01-15T04:43:26;6.90;;;0.60;;
22939;SDS011;11636;52.086;5.090;2024-01-15T04:45:59;4.80;;;1.02;;
22939;SDS011;11636;52.086;5.090;2024-01-15T04:48:26;11.07;;;1.25;;
22939;SDS011;11636;52.086;5.090;2024-01-15T04:51:00;4.07;;;0.88;;
22939;SDS011;11636;52.086;5.090;2024-01-15T04:53:29;10.13;;;0.70;;
22939;SDS011;11636;52.086;5.090;2024-01-15T04:56:03;5.18;;;0.70;;
22939;SDS011;11636;52.086;5.090;2024-01-15T04:58:30;7.60;;;0.68;;
22939;SDS011;11636;52.086;5.090;2024-01-15T05:01:03;6.07;;;0.93;;
22939;SDS011;11636;52.086;5.090;2024-01-15T05:03:30;3.47;;;0.50;;
22939;SDS011;11636;52.086;5.090;2024-01-15T05:05:57;6.13;;;0.88;;
22939;SDS011;11636;52.086;5.090;2024-01-15T05:08:31;7.53;;;0.80;;
22939;SDS011;11636;52.086;5.090;2024-01-15T05:11:11;4.97;;;0.70;;
22939;SDS011;11636;52.086;5.090;2024-01-15T05:13:44;6.85;;;0.50;;
22939;SDS011;11636;52.086;5.090;2024-01-15T05:16:11;3.47;;;0.43;;
22939;SDS011;11636;52.086;5.090;2024-01-15T05:18:44;3.63;;;0.60;;
22939;SDS011;11636;52.086;5.090;2024-01-15T05:21:11;3.75;;;0.88;;
22939;SDS011;11636;52.086;5.090;2024-01-15T05:23:38;6.18;;;0.75;;
22939;SDS011;11636;52.086;5.090;2024-01-15T05:26:11;4.10;;;0.65;;
22939;SDS011;11636;52.086;5.090;2024-01-15T05:28:44;4.15;;;0.60;;
22939;SDS011;11636;52.086;5.090;2024-01-15T05:31:17;3.10;;;0.60;;
22939;SDS011;11636;52.086;5.090;2024-01-15T05:33:44;2.92;;;0.63;;
22939;SDS011;11636;52.086;5.090;2024-01-15T05:36:17;2.47;;;0.45;;
22939;SDS011;11636;52.086;5.090;2024-01-15T05:38:44;5.05;;;0.70;;
22939;SDS011;11636;52.086;5.090;2024-01-15T05:41:17;3.15;;;0.70;;
22939;SDS011;11636;52.086;5.090;2024-01-15T05:43:44;2.78;;;0.80;;
22939;SDS011;11636;52.086;5.090;2024-01-15T05:46:17;4.25;;;0.55;;
22939;SDS011;11636;52.086;5.090;2024-01-15T05:48:44;3.53;;;0.70;;
22939;SDS011;11636;52.086;5.090;2024-01-15T05:51:17;4.18;;;1.10;;
22939;SDS011;11636;52.086;5.090;2024-01-15T05:53:44;2.92;;;0.65;;
22939;SDS011;11636;52.086;5.090;2024-01-15T05:56:13;8.38;;;0.90;;
22939;SDS011;11636;52.086;5.090;2024-01-15T05:58:46;6.47;;;0.82;;
22939;SDS011;11636;52.086;5.090;2024-01-15T06:01:13;5.18;;;0.90;;
22939;SDS011;11636;52.086;5.090;2024-01-15T06:03:46;6.22;;;1.00;;
22939;SDS011;11636;52.086;5.090;2024-01-15T06:06:13;3.13;;;0.63;;
22939;SDS011;11636;52.086;5.090;2024-01-15T06:08:40;7.75;;;0.90;;
22939;SDS011;11636;52.086;5.090;2024-01-15T06:11:13;7.03;;;0.98;;
22939;SDS011;11636;52.086;5.090;2024-01-15T06:13:46;9.43;;;1.23;;
22939;SDS011;11636;52.086;5.090;2024-01-15T06:16:16;5.28;;;0.90;;
22939;SDS011;11636;52.086;5.090;2024-01-15T06:18:45;6.97;;;1.35;;
22939;SDS011;11636;52.086;5.090;2024-01-15T06:21:18;4.07;;;1.10;;
22939;SDS011;11636;52.086;5.090;2024-01-15T06:23:45;3.47;;;1.02;;
22939;SDS011;11636;52.086;5.090;2024-01-15T06:26:18;4.80;;;1.08;;
22939;SDS011;11636;52.086;5.090;2024-01-15T06:28:45;3.40;;;0.70;;
22939;SDS011;11636;52.086;5.090;2024-01-15T06:31:11;2.85;;;0.73;;
22939;SDS011;11636;52.086;5.090;2024-01-15T06:33:45;5.00;;;1.67;;
22939;SDS011;11636;52.086;5.090;2024-01-15T06:36:20;6.60;;;1.20;;
22939;SDS011;11636;52.086;5.090;2024-01-15T06:38:47;4.70;;;1.08;;
22939;SDS011;11636;52.086;5.090;2024-01-15T06:41:21;5.43;;;1.10;;
22939;SDS011;11636;52.086;5.090;2024-01-15T06:43:54;7.43;;;1.27;;
22939;SDS011;11636;52.086;5.090;2024-01-15T06:46:22;3.65;;;0.80;;
22939;SDS011;11636;52.086;5.090;2024-01-15T06:48:56;2.88;;;0.65;;
22939;SDS011;11636;52.086;5.090;2024-01-15T06:51:29;4.32;;;0.85;;
22939;SDS011;11636;52.086;5.090;2024-01-15T06:54:03;3.63;;;0.82;;
22939;SDS011;11636;52.086;5.090;2024-01-15T06:56:31;5.68;;;1.20;;
22939;SDS011;11636;52.086;5.090;2024-01-15T06:59:04;5.10;;;1.08;;
22939;SDS011;11636;52.086;5.090;2024-01-15T07:01:31;6.95;;;1.10;;
22939;SDS011;11636;52.086;5.090;2024-01-15T07:04:04;8.23;;;1.10;;
22939;SDS011;11636;52.086;5.090;2024-01-15T07:06:37;5.80;;;1.30;;
22939;SDS011;11636;52.086;5.090;2024-01-15T07:09:11;4.82;;;1.05;;
22939;SDS011;11636;52.086;5.090;2024-01-15T07:11:38;9.23;;;1.00;;
22939;SDS011;11636;52.086;5.090;2024-01-15T07:14:11;6.95;;;0.88;;
22939;SDS011;11636;52.086;5.090;2024-01-15T07:16:38;7.10;;;0.85;;
22939;SDS011;11636;52.086;5.090;2024-01-15T07:19:14;3.63;;;0.80;;
22939;SDS011;11636;52.086;5.090;2024-01-15T07:21:41;4.03;;;0.75;;
22939;SDS011;11636;52.086;5.090;2024-01-15T07:24:09;4.55;;;0.90;;
22939;SDS011;11636;52.086;5.090;2024-01-15T07:26:43;6.25;;;0.77;;
22939;SDS011;11636;52.086;5.090;2024-01-15T07:29:10;4.18;;;0.70;;
22939;SDS011;11636;52.086;5.090;2024-01-15T07:31:50;5.38;;;0.85;;
22939;SDS011;11636;52.086;5.090;2024-01-15T07:34:18;5.35;;;0.82;;
22939;SDS011;11636;52.086;5.090;2024-01-15T07:36:51;7.28;;;1.00;;
22939;SDS011;11636;52.086;5.090;2024-01-15T07:39:18;8.23;;;1.05;;
22939;SDS011;11636;52.086;5.090;2024-01-15T07:41:45;5.13;;;1.23;;
22939;SDS011;11636;52.086;5.090;2024-01-15T07:44:19;2.63;;;0.55;;
22939;SDS011;11636;52.086;5.090;2024-01-15T07:46:46;6.00;;;1.05;;
22939;SDS011;11636;52.086;5.090;2024-01-15T07:49:19;5.47;;;0.98;;
22939;SDS011;11636;52.086;5.090;2024-01-15T07:51:46;7.10;;;1.63;;
22939;SDS011;11636;52.086;5.090;2024-01-15T07:54:19;7.13;;;1.40;;
22939;SDS011;11636;52.086;5.090;2024-01-15T07:56:53;3.88;;;0.80;;
22939;SDS011;11636;52.086;5.090;2024-01-15T07:59:30;8.90;;;1.02;;
22939;SDS011;11636;52.086;5.090;2024-01-15T08:01:58;6.68;;;1.00;;
22939;SDS011;11636;52.086;5.090;2024-01-15T08:04:32;7.85;;;1.20;;
22939;SDS011;11636;52.086;5.090;2024-01-15T08:07:05;6.47;;;1.27;;
22939;SDS011;11636;52.086;5.090;2024-01-15T08:09:34;8.82;;;1.35;;
22939;SDS011;11636;52.086;5.090;2024-01-15T08:12:08;8.27;;;1.75;;
22939;SDS011;11636;52.086;5.090;2024-01-15T08:14:36;9.50;;;2.42;;
22939;SDS011;11636;52.086;5.090;2024-01-15T08:17:09;6.28;;;1.80;;
22939;SDS011;11636;52.086;5.090;2024-01-15T08:19:42;8.18;;;1.50;;
22939;SDS011;11636;52.086;5.090;2024-01-15T08:22:16;7.15;;;1.20;;
22939;SDS011;11636;52.086;5.090;2024-01-15T08:24:49;4.93;;;0.77;;
22939;SDS011;11636;52.086;5.090;2024-01-15T08:27:23;6.35;;;0.85;;
22939;SDS011;11636;52.086;5.090;2024-01-15T08:29:50;8.48;;;1.10;;
22939;SDS011;11636;52.086;5.090;2024-01-15T08:32:23;6.20;;;1.20;;
22939;SDS011;11636;52.086;5.090;2024-01-15T08:34:50;5.78;;;1.30;;
22939;SDS011;11636;52.086;5.090;2024-01-15T08:37:25;3.83;;;0.98;;
22939;SDS011;11636;52.086;5.090;2024-01-15T08:39:51;3.15;;;0.80;;
22939;SDS011;11636;52.086;5.090;2024-01-15T08:42:24;6.35;;;0.90;;
22939;SDS011;11636;52.086;5.090;2024-01-15T08:44:51;6.75;;;0.90;;
22939;SDS011;11636;52.086;5.090;2024-01-15T08:47:18;6.65;;;1.00;;
22939;SDS011;11636;52.086;5.090;2024-01-15T08:49:51;3.90;;;0.95;;
22939;SDS011;11636;52.086;5.090;2024-01-15T08:52:18;6.18;;;0.85;;
22939;SDS011;11636;52.086;5.090;2024-01-15T08:54:52;7.72;;;0.90;;
22939;SDS011;11636;52.086;5.090;2024-01-15T08:57:19;6.32;;;1.50;;
22939;SDS011;11636;52.086;5.090;2024-01-15T08:59:52;3.65;;;0.90;;
22939;SDS011;11636;52.086;5.090;2024-01-15T09:02:21;10.52;;;1.40;;
22939;SDS011;11636;52.086;5.090;2024-01-15T09:04:54;7.93;;;1.17;;
22939;SDS011;11636;52.086;5.090;2024-01-15T09:07:21;9.60;;;1.17;;
22939;SDS011;11636;52.086;5.090;2024-01-15T09:09:48;7.63;;;1.67;;
22939;SDS011;11636;52.086;5.090;2024-01-15T09:12:21;7.63;;;1.10;;
22939;SDS011;11636;52.086;5.090;2024-01-15T09:14:48;9.00;;;1.40;;
22939;SDS011;11636;52.086;5.090;2024-01-15T09:17:23;6.05;;;1.35;;
22939;SDS011;11636;52.086;5.090;2024-01-15T09:19:50;5.72;;;1.33;;
22939;SDS011;11636;52.086;5.090;2024-01-15T09:22:23;5.80;;;1.40;;
22939;SDS011;11636;52.086;5.090;2024-01-15T09:24:50;11.70;;;1.73;;
22939;SDS011;11636;52.086;5.090;2024-01-15T09:27:24;9.48;;;1.95;;
22939;SDS011;11636;52.086;5.090;2024-01-15T09:29:52;8.50;;;1.50;;
22939;SDS011;11636;52.086;5.090;2024-01-15T09:32:19;7.75;;;1.50;;
22939;SDS011;11636;52.086;5.090;2024-01-15T09:34:53;8.23;;;1.42;;
22939;SDS011;11636;52.086;5.090;2024-01-15T09:37:19;7.88;;;1.33;;
22939;SDS011;11636;52.086;5.090;2024-01-15T09:40:12;9.95;;;1.90;;
22939;SDS011;11636;52.086;5.090;2024-01-15T09:42:49;8.27;;;1.42;;
22939;SDS011;11636;52.086;5.090;2024-01-15T09:45:18;9.30;;;1.27;;
22939;SDS011;11636;52.086;5.090;2024-01-15T09:47:51;6.50;;;0.90;;
22939;SDS011;11636;52.086;5.090;2024-01-15T09:50:25;11.05;;;1.15;;
22939;SDS011;11636;52.086;5.090;2024-01-15T09:52:54;8.63;;;0.90;;
22939;SDS011;11636;52.086;5.090;2024-01-15T09:55:29;8.88;;;1.15;;
22939;SDS011;11636;52.086;5.090;2024-01-15T09:57:56;4.57;;;0.68;;
22939;SDS011;11636;52.086;5.090;2024-01-15T10:00:33;7.63;;;1.00;;
22939;SDS011;11636;52.086;5.090;2024-01-15T10:03:03;4.22;;;0.75;;
22939;SDS011;11636;52.086;5.090;2024-01-15T10:05:38;7.95;;;1.00;;
22939;SDS011;11636;52.086;5.090;2024-01-15T10:08:05;7.32;;;1.00;;
22939;SDS011;11636;52.086;5.090;2024-01-15T10:10:40;9.75;;;1.25;;
22939;SDS011;11636;52.086;5.090;2024-01-15T10:13:07;5.53;;;0.80;;
22939;SDS011;11636;52.086;5.090;2024-01-15T10:15:40;11.88;;;1.33;;
22939;SDS011;11636;52.086;5.090;2024-01-15T10:18:09;6.10;;;1.13;;
22939;SDS011;11636;52.086;5.090;2024-01-15T10:20:43;7.60;;;2.03;;
22939;SDS011;11636;52.086;5.090;2024-01-15T10:23:17;8.82;;;1.20;;
22939;SDS011;11636;52.086;5.090;2024-01-15T10:25:45;7.25;;;1.25;;
22939;SDS011;11636;52.086;5.090;2024-01-15T10:28:19;14.63;;;1.77;;
22939;SDS011;11636;52.086;5.090;2024-01-15T10:30:46;9.48;;;1.27;;
22939;SDS011;11636;52.086;5.090;2024-01-15T10:33:25;8.20;;;1.40;;
22939;SDS011;11636;52.086;5.090;2024-01-15T10:35:59;11.18;;;1.40;;
22939;SDS011;11636;52.086;5.090;2024-01-15T10:38:33;7.30;;;1.17;;
22939;SDS011;11636;52.086;5.090;2024-01-15T10:41:00;7.38;;;1.30;;
22939;SDS011;11636;52.086;5.090;2024-01-15T10:43:28;7.43;;;1.45;;
22939;SDS011;11636;52.086;5.090;2024-01-15T10:46:00;7.28;;;1.50;;
22939;SDS011;11636;52.086;5.090;2024-01-15T10:48:28;10.65;;;1.30;;
22939;SDS011;11636;52.086;5.090;2024-01-15T10:51:04;11.40;;;1.50;;
22939;SDS011;11636;52.086;5.090;2024-01-15T10:53:38;5.97;;;0.80;;
22939;SDS011;11636;52.086;5.090;2024-01-15T10:56:12;2.72;;;0.70;;
22939;SDS011;11636;52.086;5.090;2024-01-15T10:58:40;6.05;;;0.90;;
22939;SDS011;11636;52.086;5.090;2024-01-15T11:01:16;4.95;;;1.00;;
22939;SDS011;11636;52.086;5.090;2024-01-15T11:03:43;6.22;;;1.00;;
22939;SDS011;11636;52.086;5.090;2024-01-15T11:06:24;8.85;;;1.33;;
22939;SDS011;11636;52.086;5.090;2024-01-15T11:09:00;6.13;;;0.90;;
22939;SDS011;11636;52.086;5.090;2024-01-15T11:11:39;10.20;;;1.10;;
22939;SDS011;11636;52.086;5.090;2024-01-15T11:14:07;11.00;;;1.48;;
22939;SDS011;11636;52.086;5.090;2024-01-15T11:16:53;4.70;;;1.30;;
22939;SDS011;11636;52.086;5.090;2024-01-15T11:19:35;7.63;;;1.02;;
22939;SDS011;11636;52.086;5.090;2024-01-15T11:22:09;7.63;;;1.35;;
22939;SDS011;11636;52.086;5.090;2024-01-15T11:24:44;8.15;;;1.95;;
22939;SDS011;11636;52.086;5.090;2024-01-15T11:27:17;9.25;;;1.15;;
22939;SDS011;11636;52.086;5.090;2024-01-15T11:30:14;4.30;;;0.80;;
22939;SDS011;11636;52.086;5.090;2024-01-15T11:32:48;5.57;;;1.08;;
22939;SDS011;11636;52.086;5.090;2024-01-15T11:35:21;7.40;;;0.85;;
22939;SDS011;11636;52.086;5.090;2024-01-15T11:40:23;5.57;;;0.80;;
22939;SDS011;11636;52.086;5.090;2024-01-15T11:43:12;6.40;;;0.88;;
22939;SDS011;11636;52.086;5.090;2024-01-15T11:45:39;4.60;;;1.20;;
22939;SDS011;11636;52.086;5.090;2024-01-15T11:48:16;5.65;;;1.50;;
22939;SDS011;11636;52.086;5.090;2024-01-15T11:50:50;4.47;;;1.10;;
22939;SDS011;11636;52.086;5.090;2024-01-15T11:53:27;4.45;;;1.00;;
22939;SDS011;11636;52.086;5.090;2024-01-15T11:56:03;5.20;;;0.90;;
22939;SDS011;11636;52.086;5.090;2024-01-15T11:58:44;6.88;;;1.13;;
22939;SDS011;11636;52.086;5.090;2024-01-15T12:01:11;7.70;;;1.10;;
22939;SDS011;11636;52.086;5.090;2024-01-15T12:03:46;4.25;;;0.82;;
22939;SDS011;11636;52.086;5.090;2024-01-15T12:06:13;4.85;;;0.80;;
22939;SDS011;11636;52.086;5.090;2024-01-15T12:08:40;6.30;;;1.25;;
22939;SDS011;11636;52.086;5.090;2024-01-15T12:11:14;5.35;;;1.00;;
22939;SDS011;11636;52.086;5.090;2024-01-15T12:13:45;3.88;;;0.80;;
22939;SDS011;11636;52.086;5.090;2024-01-15T12:16:19;3.13;;;0.70;;
22939;SDS011;11636;52.086;5.090;2024-01-15T12:18:46;4.85;;;1.10;;
22939;SDS011;11636;52.086;5.090;2024-01-15T12:21:19;4.53;;;0.73;;
22939;SDS011;11636;52.086;5.090;2024-01-15T12:23:52;4.00;;;0.85;;
22939;SDS011;11636;52.086;5.090;2024-01-15T12:26:20;7.25;;;1.30;;
22939;SDS011;11636;52.086;5.090;2024-01-15T12:28:54;5.70;;;1.40;;
22939;SDS011;11636;52.086;5.090;2024-01-15T12:31:23;5.53;;;1.48;;
22939;SDS011;11636;52.086;5.090;2024-01-15T12:33:50;7.75;;;1.20;;
22939;SDS011;11636;52.086;5.090;2024-01-15T12:36:23;7.22;;;1.30;;
22939;SDS011;11636;52.086;5.090;2024-01-15T12:38:59;8.98;;;1.45;;
22939;SDS011;11636;52.086;5.090;2024-01-15T12:41:26;6.82;;;1.40;;
22939;SDS011;11636;52.086;5.090;2024-01-15T12:43:59;6.40;;;0.88;;
22939;SDS011;11636;52.086;5.090;2024-01-15T12:46:25;12.10;;;2.00;;
22939;SDS011;11636;52.086;5.090;2024-01-15T12:48:59;7.65;;;1.20;;
22939;SDS011;11636;52.086;5.090;2024-01-15T12:51:26;14.18;;;1.85;;
22939;SDS011;11636;52.086;5.090;2024-01-15T12:53:53;10.38;;;1.50;;
22939;SDS011;11636;52.086;5.090;2024-01-15T12:56:27;13.50;;;1.80;;
22939;SDS011;11636;52.086;5.090;2024-01-15T12:58:53;8.13;;;1.42;;
22939;SDS011;11636;52.086;5.090;2024-01-15T13:01:27;12.77;;;1.70;;
22939;SDS011;11636;52.086;5.090;2024-01-15T13:03:54;9.70;;;1.40;;
22939;SDS011;11636;52.086;5.090;2024-01-15T13:06:27;9.43;;;1.40;;
22939;SDS011;11636;52.086;5.090;2024-01-15T13:08:54;7.53;;;1.48;;
22939;SDS011;11636;52.086;5.090;2024-01-15T13:11:27;12.68;;;1.58;;
22939;SDS011;11636;52.086;5.090;2024-01-15T13:13:54;7.47;;;1.50;;
22939;SDS011;11636;52.086;5.090;2024-01-15T13:16:20;7.45;;;1.10;;
22939;SDS011;11636;52.086;5.090;2024-01-15T13:18:55;10.35;;;1.75;;
22939;SDS011;11636;52.086;5.090;2024-01-15T13:21:32;9.20;;;1.45;;
22939;SDS011;11636;52.086;5.090;2024-01-15T13:24:05;6.78;;;1.73;;
22939;SDS011;11636;52.086;5.090;2024-01-15T13:26:35;11.63;;;1.80;;
22939;SDS011;11636;52.086;5.090;2024-01-15T13:29:09;9.38;;;1.70;;
22939;SDS011;11636;52.086;5.090;2024-01-15T13:31:36;11.20;;;1.55;;
22939;SDS011;11636;52.086;5.090;2024-01-15T13:34:03;10.35;;;1.58;;
22939;SDS011;11636;52.086;5.090;2024-01-15T13:36:36;10.60;;;1.88;;
22939;SDS011;11636;52.086;5.090;2024-01-15T13:39:05;14.80;;;2.53;;
22939;SDS011;11636;52.086;5.090;2024-01-15T13:41:43;8.20;;;1.45;;
22939;SDS011;11636;52.086;5.090;2024-01-15T13:44:10;14.52;;;1.52;;
22939;SDS011;11636;52.086;5.090;2024-01-15T13:46:44;9.38;;;1.85;;
22939;SDS011;11636;52.086;5.090;2024-01-15T13:49:10;13.52;;;1.83;;
22939;SDS011;11636;52.086;5.090;2024-01-15T13:51:44;11.52;;;1.83;;
22939;SDS011;11636;52.086;5.090;2024-01-15T13:54:11;11.80;;;1.98;;
22939;SDS011;11636;52.086;5.090;2024-01-15T13:56:45;12.75;;;2.05;;
22939;SDS011;11636;52.086;5.090;2024-01-15T13:59:13;7.75;;;1.63;;
22939;SDS011;11636;52.086;5.090;2024-01-15T14:01:47;10.07;;;1.05;;
22939;SDS011;11636;52.086;5.090;2024-01-15T14:04:20;6.82;;;1.20;;
22939;SDS011;11636;52.086;5.090;2024-01-15T14:06:47;9.00;;;1.58;;
22939;SDS011;11636;52.086;5.090;2024-01-15T14:09:20;5.50;;;1.08;;
22939;SDS011;11636;52.086;5.090;2024-01-15T14:11:54;8.75;;;1.30;;
22939;SDS011;11636;52.086;5.090;2024-01-15T14:14:21;6.53;;;1.20;;
22939;SDS011;11636;52.086;5.090;2024-01-15T14:16:54;8.60;;;1.77;;
22939;SDS011;11636;52.086;5.090;2024-01-15T14:19:21;7.60;;;1.00;;
22939;SDS011;11636;52.086;5.090;2024-01-15T14:21:54;5.28;;;1.25;;
22939;SDS011;11636;52.086;5.090;2024-01-15T14:24:22;13.75;;;1.70;;
22939;SDS011;11636;52.086;5.090;2024-01-15T14:26:49;12.00;;;2.08;;
22939;SDS011;11636;52.086;5.090;2024-01-15T14:29:22;8.05;;;1.35;;
22939;SDS011;11636;52.086;5.090;2024-01-15T14:31:52;11.57;;;1.80;;
22939;SDS011;11636;52.086;5.090;2024-01-15T14:34:19;26.95;;;4.15;;
22939;SDS011;11636;52.086;5.090;2024-01-15T14:36:56;14.57;;;1.98;;
22939;SDS011;11636;52.086;5.090;2024-01-15T14:39:30;11.45;;;2.03;;
22939;SDS011;11636;52.086;5.090;2024-01-15T14:42:00;9.25;;;1.73;;
22939;SDS011;11636;52.086;5.090;2024-01-15T14:44:27;11.18;;;2.40;;
22939;SDS011;11636;52.086;5.090;2024-01-15T14:47:03;13.20;;;1.73;;
22939;SDS011;11636;52.086;5.090;2024-01-15T14:49:30;15.38;;;1.80;;
22939;SDS011;11636;52.086;5.090;2024-01-15T14:52:04;12.45;;;1.70;;
22939;SDS011;11636;52.086;5.090;2024-01-15T14:54:31;10.05;;;1.80;;
22939;SDS011;11636;52.086;5.090;2024-01-15T14:57:05;12.82;;;1.65;;
22939;SDS011;11636;52.086;5.090;2024-01-15T14:59:32;11.68;;;2.25;;
22939;SDS011;11636;52.086;5.090;2024-01-15T15:01:59;11.60;;;1.90;;
22939;SDS011;11636;52.086;5.090;2024-01-15T15:04:35;12.43;;;1.77;;
22939;SDS011;11636;52.086;5.090;2024-01-15T15:07:12;11.45;;;1.90;;
22939;SDS011;11636;52.086;5.090;2024-01-15T15:09:39;9.63;;;1.88;;